sensor_id;sensor_type;location;lat;lon;timestamp;P1;durP1;ratioP1;P2;durP2;ratioP2
14965;SDS011;7577;45.226;5.798;2023-05-15T00:00:57;55.97;;;32.97;;
14965;SDS011;7577;45.226;5.798;2023-05-15T00:03:35;52.87;;;31.60;;
14965;SDS011;7577;45.226;5.798;2023-05-15T00:06:05;50.30;;;30.03;;
14965;SDS011;7577;45.226;5.798;2023-05-15T00:08:35;49.67;;;29.77;;
14965;SDS011;7577;45.226;5.798;2023-05-15T00:11:06;46.83;;;29.20;;
14965;SDS011;7577;45.226;5.798;2023-05-15T00:13:36;44.87;;;27.87;;
14965;SDS011;7577;45.226;5.798;2023-05-15T00:16:06;44.67;;;27.40;;
14965;SDS011;7577;45.226;5.798;2023-05-15T00:18:37;47.23;;;28.70;;
14965;SDS011;7577;45.226;5.798;2023-05-15T00:21:15;45.27;;;26.97;;
14965;SDS011;7577;45.226;5.798;2023-05-15T00:23:46;43.63;;;27.03;;
14965;SDS011;7577;45.226;5.798;2023-05-15T00:26:18;41.23;;;24.50;;
14965;SDS011;7577;45.226;5.798;2023-05-15T00:28:50;42.90;;;25.73;;
14965;SDS011;7577;45.226;5.798;2023-05-15T00:31:20;39.73;;;25.23;;
14965;SDS011;7577;45.226;5.798;2023-05-15T00:33:50;39.07;;;24.90;;
14965;SDS011;7577;45.226;5.798;2023-05-15T00:36:20;39.23;;;23.30;;
14965;SDS011;7577;45.226;5.798;2023-05-15T00:38:52;35.50;;;22.37;;
14965;SDS011;7577;45.226;5.798;2023-05-15T00:41:22;40.47;;;24.50;;
14965;SDS011;7577;45.226;5.798;2023-05-15T00:43:54;36.70;;;23.10;;
14965;SDS011;7577;45.226;5.798;2023-05-15T00:46:27;35.37;;;22.33;;
14965;SDS011;7577;45.226;5.798;2023-05-15T00:48:59;34.50;;;22.17;;
14965;SDS011;7577;45.226;5.798;2023-05-15T00:51:30;33.67;;;20.77;;
14965;SDS011;7577;45.226;5.798;2023-05-15T00:54:01;32.50;;;21.20;;
14965;SDS011;7577;45.226;5.798;2023-05-15T00:56:32;33.00;;;20.63;;
14965;SDS011;7577;45.226;5.798;2023-05-15T00:59:03;33.77;;;20.27;;
14965;SDS011;7577;45.226;5.798;2023-05-15T01:01:34;32.97;;;19.40;;
14965;SDS011;7577;45.226;5.798;2023-05-15T01:04:04;30.63;;;18.93;;
14965;SDS011;7577;45.226;5.798;2023-05-15T01:06:42;26.87;;;18.53;;
14965;SDS011;7577;45.226;5.798;2023-05-15T01:09:12;27.97;;;18.13;;
14965;SDS011;7577;45.226;5.798;2023-05-15T01:11:43;28.40;;;18.40;;
14965;SDS011;7577;45.226;5.798;2023-05-15T01:14:17;27.57;;;18.23;;
14965;SDS011;7577;45.226;5.798;2023-05-15T01:16:58;25.20;;;17.17;;
14965;SDS011;7577;45.226;5.798;2023-05-15T01:19:29;25.20;;;16.40;;
14965;SDS011;7577;45.226;5.798;2023-05-15T01:22:08;26.70;;;17.50;;
14965;SDS011;7577;45.226;5.798;2023-05-15T01:24:56;26.13;;;17.00;;
14965;SDS011;7577;45.226;5.798;2023-05-15T01:30:29;25.10;;;15.60;;
14965;SDS011;7577;45.226;5.798;2023-05-15T01:33:04;21.20;;;14.90;;
14965;SDS011;7577;45.226;5.798;2023-05-15T01:35:37;24.00;;;15.10;;
14965;SDS011;7577;45.226;5.798;2023-05-15T01:38:11;22.10;;;14.70;;
14965;SDS011;7577;45.226;5.798;2023-05-15T01:40:55;23.00;;;15.13;;
14965;SDS011;7577;45.226;5.798;2023-05-15T01:43:27;24.33;;;15.17;;
14965;SDS011;7577;45.226;5.798;2023-05-15T01:45:59;19.23;;;13.77;;
14965;SDS011;7577;45.226;5.798;2023-05-15T01:48:37;21.40;;;13.60;;
14965;SDS011;7577;45.226;5.798;2023-05-15T01:51:09;20.87;;;14.20;;
14965;SDS011;7577;45.226;5.798;2023-05-15T01:53:49;18.70;;;13.27;;
14965;SDS011;7577;45.226;5.798;2023-05-15T01:56:21;21.80;;;13.20;;
14965;SDS011;7577;45.226;5.798;2023-05-15T01:58:53;17.20;;;12.30;;
14965;SDS011;7577;45.226;5.798;2023-05-15T02:01:26;17.67;;;12.80;;
14965;SDS011;7577;45.226;5.798;2023-05-15T02:03:59;17.90;;;12.43;;
14965;SDS011;7577;45.226;5.798;2023-05-15T02:06:31;17.80;;;12.33;;
14965;SDS011;7577;45.226;5.798;2023-05-15T02:09:02;18.50;;;12.03;;
14965;SDS011;7577;45.226;5.798;2023-05-15T02:11:32;16.43;;;11.53;;
14965;SDS011;7577;45.226;5.798;2023-05-15T02:14:11;18.43;;;12.03;;
14965;SDS011;7577;45.226;5.798;2023-05-15T02:16:42;16.80;;;11.50;;
14965;SDS011;7577;45.226;5.798;2023-05-15T02:19:12;16.67;;;10.93;;
14965;SDS011;7577;45.226;5.798;2023-05-15T02:21:50;16.53;;;11.93;;
14965;SDS011;7577;45.226;5.798;2023-05-15T02:24:20;17.47;;;11.63;;
14965;SDS011;7577;45.226;5.798;2023-05-15T02:26:59;14.97;;;10.43;;
14965;SDS011;7577;45.226;5.798;2023-05-15T02:29:36;14.33;;;10.03;;
14965;SDS011;7577;45.226;5.798;2023-05-15T02:32:08;14.63;;;10.00;;
14965;SDS011;7577;45.226;5.798;2023-05-15T02:34:42;13.77;;;10.23;;
14965;SDS011;7577;45.226;5.798;2023-05-15T02:37:16;14.33;;;9.97;;
14965;SDS011;7577;45.226;5.798;2023-05-15T02:39:47;14.27;;;9.63;;
14965;SDS011;7577;45.226;5.798;2023-05-15T02:42:20;13.23;;;9.67;;
14965;SDS011;7577;45.226;5.798;2023-05-15T02:44:58;12.33;;;9.33;;
14965;SDS011;7577;45.226;5.798;2023-05-15T02:47:30;13.23;;;9.07;;
14965;SDS011;7577;45.226;5.798;2023-05-15T02:50:04;13.40;;;8.90;;
14965;SDS011;7577;45.226;5.798;2023-05-15T02:52:36;14.03;;;9.33;;
14965;SDS011;7577;45.226;5.798;2023-05-15T02:55:07;14.93;;;9.33;;
14965;SDS011;7577;45.226;5.798;2023-05-15T02:57:45;14.67;;;9.30;;
14965;SDS011;7577;45.226;5.798;2023-05-15T03:00:17;12.37;;;8.77;;
14965;SDS011;7577;45.226;5.798;2023-05-15T03:02:48;15.10;;;9.67;;
14965;SDS011;7577;45.226;5.798;2023-05-15T03:05:19;10.80;;;8.30;;
14965;SDS011;7577;45.226;5.798;2023-05-15T03:07:50;11.83;;;7.87;;
14965;SDS011;7577;45.226;5.798;2023-05-15T03:10:20;12.50;;;7.90;;
14965;SDS011;7577;45.226;5.798;2023-05-15T03:12:50;11.73;;;7.90;;
14965;SDS011;7577;45.226;5.798;2023-05-15T03:15:23;9.73;;;7.70;;
14965;SDS011;7577;45.226;5.798;2023-05-15T03:17:54;11.63;;;8.03;;
14965;SDS011;7577;45.226;5.798;2023-05-15T03:20:24;12.63;;;8.90;;
14965;SDS011;7577;45.226;5.798;2023-05-15T03:22:54;10.83;;;8.13;;
14965;SDS011;7577;45.226;5.798;2023-05-15T03:25:32;10.90;;;7.60;;
14965;SDS011;7577;45.226;5.798;2023-05-15T03:28:02;10.13;;;7.03;;
14965;SDS011;7577;45.226;5.798;2023-05-15T03:30:33;9.93;;;7.53;;
14965;SDS011;7577;45.226;5.798;2023-05-15T03:33:03;9.30;;;7.03;;
14965;SDS011;7577;45.226;5.798;2023-05-15T03:35:33;9.67;;;6.50;;
14965;SDS011;7577;45.226;5.798;2023-05-15T03:38:03;10.23;;;7.40;;
14965;SDS011;7577;45.226;5.798;2023-05-15T03:40:33;9.87;;;7.40;;
14965;SDS011;7577;45.226;5.798;2023-05-15T03:43:05;9.50;;;6.47;;
14965;SDS011;7577;45.226;5.798;2023-05-15T03:45:35;7.90;;;6.30;;
14965;SDS011;7577;45.226;5.798;2023-05-15T03:48:06;7.80;;;6.60;;
14965;SDS011;7577;45.226;5.798;2023-05-15T03:50:37;9.57;;;6.70;;
14965;SDS011;7577;45.226;5.798;2023-05-15T03:53:07;9.77;;;6.33;;
14965;SDS011;7577;45.226;5.798;2023-05-15T03:55:37;8.67;;;6.13;;
14965;SDS011;7577;45.226;5.798;2023-05-15T03:58:07;8.37;;;6.30;;
14965;SDS011;7577;45.226;5.798;2023-05-15T04:00:38;7.63;;;6.20;;
14965;SDS011;7577;45.226;5.798;2023-05-15T04:03:16;9.27;;;6.73;;
14965;SDS011;7577;45.226;5.798;2023-05-15T04:05:47;7.40;;;5.80;;
14965;SDS011;7577;45.226;5.798;2023-05-15T04:08:18;8.90;;;6.30;;
14965;SDS011;7577;45.226;5.798;2023-05-15T04:10:48;8.50;;;5.63;;
14965;SDS011;7577;45.226;5.798;2023-05-15T04:13:18;6.90;;;5.53;;
14965;SDS011;7577;45.226;5.798;2023-05-15T04:15:56;7.40;;;5.47;;
14965;SDS011;7577;45.226;5.798;2023-05-15T04:18:27;8.73;;;5.70;;
14965;SDS011;7577;45.226;5.798;2023-05-15T04:20:57;7.20;;;5.33;;
14965;SDS011;7577;45.226;5.798;2023-05-15T04:23:27;6.93;;;5.63;;
14965;SDS011;7577;45.226;5.798;2023-05-15T04:26:05;7.47;;;5.67;;
14965;SDS011;7577;45.226;5.798;2023-05-15T04:28:35;7.17;;;5.50;;
14965;SDS011;7577;45.226;5.798;2023-05-15T04:31:05;8.07;;;6.00;;
14965;SDS011;7577;45.226;5.798;2023-05-15T04:33:35;6.07;;;4.73;;
14965;SDS011;7577;45.226;5.798;2023-05-15T04:36:07;6.47;;;4.97;;
14965;SDS011;7577;45.226;5.798;2023-05-15T04:38:37;5.87;;;5.20;;
14965;SDS011;7577;45.226;5.798;2023-05-15T04:41:07;6.83;;;5.40;;
14965;SDS011;7577;45.226;5.798;2023-05-15T04:43:37;6.87;;;5.40;;
14965;SDS011;7577;45.226;5.798;2023-05-15T04:46:07;7.93;;;6.37;;
14965;SDS011;7577;45.226;5.798;2023-05-15T04:48:38;7.63;;;6.47;;
14965;SDS011;7577;45.226;5.798;2023-05-15T04:51:07;7.47;;;6.40;;
14965;SDS011;7577;45.226;5.798;2023-05-15T04:53:38;7.70;;;6.77;;
14965;SDS011;7577;45.226;5.798;2023-05-15T04:56:08;7.43;;;6.50;;
14965;SDS011;7577;45.226;5.798;2023-05-15T04:58:38;7.17;;;6.37;;
14965;SDS011;7577;45.226;5.798;2023-05-15T05:01:08;7.87;;;6.10;;
14965;SDS011;7577;45.226;5.798;2023-05-15T05:03:38;12.27;;;6.07;;
14965;SDS011;7577;45.226;5.798;2023-05-15T05:06:08;8.20;;;5.73;;
14965;SDS011;7577;45.226;5.798;2023-05-15T05:08:39;9.13;;;6.60;;
14965;SDS011;7577;45.226;5.798;2023-05-15T05:11:16;7.37;;;5.83;;
14965;SDS011;7577;45.226;5.798;2023-05-15T05:13:48;7.97;;;6.10;;
14965;SDS011;7577;45.226;5.798;2023-05-15T05:16:18;7.77;;;5.87;;
14965;SDS011;7577;45.226;5.798;2023-05-15T05:18:48;7.37;;;5.40;;
14965;SDS011;7577;45.226;5.798;2023-05-15T05:21:18;7.23;;;5.77;;
14965;SDS011;7577;45.226;5.798;2023-05-15T05:23:48;6.63;;;5.67;;
14965;SDS011;7577;45.226;5.798;2023-05-15T05:26:29;6.37;;;5.70;;
14965;SDS011;7577;45.226;5.798;2023-05-15T05:28:59;6.33;;;5.27;;
14965;SDS011;7577;45.226;5.798;2023-05-15T05:31:37;7.50;;;5.20;;
14965;SDS011;7577;45.226;5.798;2023-05-15T05:34:07;6.47;;;5.30;;
14965;SDS011;7577;45.226;5.798;2023-05-15T05:36:38;6.07;;;5.20;;
14965;SDS011;7577;45.226;5.798;2023-05-15T05:39:15;6.00;;;5.40;;
14965;SDS011;7577;45.226;5.798;2023-05-15T05:41:46;6.07;;;5.20;;
14965;SDS011;7577;45.226;5.798;2023-05-15T05:44:24;6.20;;;5.03;;
14965;SDS011;7577;45.226;5.798;2023-05-15T05:46:54;7.33;;;4.87;;
14965;SDS011;7577;45.226;5.798;2023-05-15T05:49:24;9.47;;;5.37;;
14965;SDS011;7577;45.226;5.798;2023-05-15T05:51:54;6.43;;;4.67;;
14965;SDS011;7577;45.226;5.798;2023-05-15T05:54:25;6.00;;;4.90;;
14965;SDS011;7577;45.226;5.798;2023-05-15T05:56:56;7.63;;;5.33;;
14965;SDS011;7577;45.226;5.798;2023-05-15T05:59:26;6.63;;;5.37;;
14965;SDS011;7577;45.226;5.798;2023-05-15T06:01:56;7.03;;;5.67;;
14965;SDS011;7577;45.226;5.798;2023-05-15T06:04:26;7.43;;;4.67;;
14965;SDS011;7577;45.226;5.798;2023-05-15T06:06:56;8.83;;;5.60;;
14965;SDS011;7577;45.226;5.798;2023-05-15T06:09:27;7.00;;;5.93;;
14965;SDS011;7577;45.226;5.798;2023-05-15T06:11:57;5.93;;;5.23;;
14965;SDS011;7577;45.226;5.798;2023-05-15T06:14:29;6.07;;;5.00;;
14965;SDS011;7577;45.226;5.798;2023-05-15T06:16:59;7.03;;;5.30;;
14965;SDS011;7577;45.226;5.798;2023-05-15T06:19:30;6.80;;;5.20;;
14965;SDS011;7577;45.226;5.798;2023-05-15T06:22:00;5.87;;;4.70;;
14965;SDS011;7577;45.226;5.798;2023-05-15T06:24:32;5.70;;;5.07;;
14965;SDS011;7577;45.226;5.798;2023-05-15T06:27:10;5.67;;;5.10;;
14965;SDS011;7577;45.226;5.798;2023-05-15T06:29:40;7.50;;;5.10;;
14965;SDS011;7577;45.226;5.798;2023-05-15T06:32:10;7.40;;;4.30;;
14965;SDS011;7577;45.226;5.798;2023-05-15T06:34:40;9.03;;;4.47;;
14965;SDS011;7577;45.226;5.798;2023-05-15T06:37:10;5.30;;;4.10;;
14965;SDS011;7577;45.226;5.798;2023-05-15T06:39:40;5.67;;;4.70;;
14965;SDS011;7577;45.226;5.798;2023-05-15T06:42:18;5.47;;;4.50;;
14965;SDS011;7577;45.226;5.798;2023-05-15T06:44:48;5.20;;;4.20;;
14965;SDS011;7577;45.226;5.798;2023-05-15T06:47:18;5.57;;;5.07;;
14965;SDS011;7577;45.226;5.798;2023-05-15T06:49:48;5.50;;;4.63;;
14965;SDS011;7577;45.226;5.798;2023-05-15T06:52:19;5.80;;;4.67;;
14965;SDS011;7577;45.226;5.798;2023-05-15T06:54:49;5.80;;;4.67;;
14965;SDS011;7577;45.226;5.798;2023-05-15T06:57:19;5.00;;;4.50;;
14965;SDS011;7577;45.226;5.798;2023-05-15T06:59:49;5.70;;;4.20;;
14965;SDS011;7577;45.226;5.798;2023-05-15T07:02:19;4.60;;;4.20;;
14965;SDS011;7577;45.226;5.798;2023-05-15T07:04:50;4.93;;;4.43;;
14965;SDS011;7577;45.226;5.798;2023-05-15T07:07:20;4.43;;;3.93;;
14965;SDS011;7577;45.226;5.798;2023-05-15T07:09:51;4.93;;;4.17;;
14965;SDS011;7577;45.226;5.798;2023-05-15T07:12:21;4.27;;;3.90;;
14965;SDS011;7577;45.226;5.798;2023-05-15T07:14:52;4.27;;;3.87;;
14965;SDS011;7577;45.226;5.798;2023-05-15T07:17:22;4.90;;;4.03;;
14965;SDS011;7577;45.226;5.798;2023-05-15T07:19:52;4.30;;;3.90;;
14965;SDS011;7577;45.226;5.798;2023-05-15T07:22:30;4.70;;;4.30;;
14965;SDS011;7577;45.226;5.798;2023-05-15T07:25:00;4.40;;;4.00;;
14965;SDS011;7577;45.226;5.798;2023-05-15T07:27:37;4.20;;;3.80;;
14965;SDS011;7577;45.226;5.798;2023-05-15T07:30:08;4.83;;;3.90;;
14965;SDS011;7577;45.226;5.798;2023-05-15T07:32:39;4.07;;;3.70;;
14965;SDS011;7577;45.226;5.798;2023-05-15T07:35:17;3.93;;;3.60;;
14965;SDS011;7577;45.226;5.798;2023-05-15T07:37:47;4.93;;;4.30;;
14965;SDS011;7577;45.226;5.798;2023-05-15T07:40:17;4.40;;;3.80;;
14965;SDS011;7577;45.226;5.798;2023-05-15T07:42:47;4.00;;;3.70;;
14965;SDS011;7577;45.226;5.798;2023-05-15T07:45:18;4.07;;;3.67;;
14965;SDS011;7577;45.226;5.798;2023-05-15T07:47:49;4.20;;;3.73;;
14965;SDS011;7577;45.226;5.798;2023-05-15T07:50:20;4.07;;;3.73;;
14965;SDS011;7577;45.226;5.798;2023-05-15T07:52:50;4.30;;;3.90;;
14965;SDS011;7577;45.226;5.798;2023-05-15T07:55:20;4.80;;;4.27;;
14965;SDS011;7577;45.226;5.798;2023-05-15T07:57:50;4.50;;;4.10;;
14965;SDS011;7577;45.226;5.798;2023-05-15T08:00:21;5.07;;;3.70;;
14965;SDS011;7577;45.226;5.798;2023-05-15T08:02:51;5.83;;;4.20;;
14965;SDS011;7577;45.226;5.798;2023-05-15T08:05:29;4.33;;;3.90;;
14965;SDS011;7577;45.226;5.798;2023-05-15T08:07:59;4.13;;;3.73;;
14965;SDS011;7577;45.226;5.798;2023-05-15T08:10:30;4.10;;;3.67;;
14965;SDS011;7577;45.226;5.798;2023-05-15T08:13:00;4.50;;;4.10;;
14965;SDS011;7577;45.226;5.798;2023-05-15T08:15:30;4.50;;;4.10;;
14965;SDS011;7577;45.226;5.798;2023-05-15T08:18:00;4.17;;;3.87;;
14965;SDS011;7577;45.226;5.798;2023-05-15T08:20:31;4.50;;;4.10;;
14965;SDS011;7577;45.226;5.798;2023-05-15T08:23:01;4.87;;;4.37;;
14965;SDS011;7577;45.226;5.798;2023-05-15T08:25:31;5.20;;;4.50;;
14965;SDS011;7577;45.226;5.798;2023-05-15T08:28:02;4.73;;;4.20;;
14965;SDS011;7577;45.226;5.798;2023-05-15T08:30:33;4.60;;;4.20;;
14965;SDS011;7577;45.226;5.798;2023-05-15T08:33:03;4.77;;;4.37;;
14965;SDS011;7577;45.226;5.798;2023-05-15T08:35:40;4.70;;;4.30;;
14965;SDS011;7577;45.226;5.798;2023-05-15T08:38:10;5.00;;;4.60;;
14965;SDS011;7577;45.226;5.798;2023-05-15T08:40:40;4.90;;;4.50;;
14965;SDS011;7577;45.226;5.798;2023-05-15T08:43:23;4.43;;;4.03;;
14965;SDS011;7577;45.226;5.798;2023-05-15T08:45:54;4.60;;;4.20;;
14965;SDS011;7577;45.226;5.798;2023-05-15T08:48:26;4.77;;;4.37;;
14965;SDS011;7577;45.226;5.798;2023-05-15T08:50:59;4.90;;;4.47;;
14965;SDS011;7577;45.226;5.798;2023-05-15T08:53:30;5.20;;;4.70;;
14965;SDS011;7577;45.226;5.798;2023-05-15T08:56:00;5.13;;;4.63;;
14965;SDS011;7577;45.226;5.798;2023-05-15T08:58:32;5.27;;;4.77;;
14965;SDS011;7577;45.226;5.798;2023-05-15T09:01:04;5.03;;;4.60;;
14965;SDS011;7577;45.226;5.798;2023-05-15T09:03:34;5.83;;;4.83;;
14965;SDS011;7577;45.226;5.798;2023-05-15T09:06:05;5.20;;;4.80;;
14965;SDS011;7577;45.226;5.798;2023-05-15T09:08:36;5.17;;;4.67;;
14965;SDS011;7577;45.226;5.798;2023-05-15T09:11:08;4.60;;;4.20;;
14965;SDS011;7577;45.226;5.798;2023-05-15T09:13:39;4.80;;;4.40;;
14965;SDS011;7577;45.226;5.798;2023-05-15T09:16:09;4.23;;;3.93;;
14965;SDS011;7577;45.226;5.798;2023-05-15T09:18:39;5.23;;;4.73;;
14965;SDS011;7577;45.226;5.798;2023-05-15T09:21:24;5.30;;;4.77;;
14965;SDS011;7577;45.226;5.798;2023-05-15T09:24:14;4.97;;;4.57;;
14965;SDS011;7577;45.226;5.798;2023-05-15T09:27:00;5.67;;;4.97;;
14965;SDS011;7577;45.226;5.798;2023-05-15T09:29:32;5.63;;;4.67;;
14965;SDS011;7577;45.226;5.798;2023-05-15T09:32:08;5.13;;;4.70;;
14965;SDS011;7577;45.226;5.798;2023-05-15T09:34:40;5.20;;;4.70;;
14965;SDS011;7577;45.226;5.798;2023-05-15T09:37:26;5.50;;;5.00;;
14965;SDS011;7577;45.226;5.798;2023-05-15T09:40:06;5.30;;;4.90;;
14965;SDS011;7577;45.226;5.798;2023-05-15T09:42:37;5.23;;;4.63;;
14965;SDS011;7577;45.226;5.798;2023-05-15T09:45:10;4.70;;;4.30;;
14965;SDS011;7577;45.226;5.798;2023-05-15T09:47:45;5.77;;;4.87;;
14965;SDS011;7577;45.226;5.798;2023-05-15T09:50:19;5.50;;;4.90;;
14965;SDS011;7577;45.226;5.798;2023-05-15T09:52:50;5.33;;;4.83;;
14965;SDS011;7577;45.226;5.798;2023-05-15T09:55:21;5.00;;;4.50;;
14965;SDS011;7577;45.226;5.798;2023-05-15T09:58:04;5.57;;;5.00;;
14965;SDS011;7577;45.226;5.798;2023-05-15T10:00:37;6.73;;;4.50;;
14965;SDS011;7577;45.226;5.798;2023-05-15T10:03:08;5.40;;;4.90;;
14965;SDS011;7577;45.226;5.798;2023-05-15T10:05:39;5.27;;;4.43;;
14965;SDS011;7577;45.226;5.798;2023-05-15T10:08:09;5.73;;;4.60;;
14965;SDS011;7577;45.226;5.798;2023-05-15T10:10:41;5.10;;;4.70;;
14965;SDS011;7577;45.226;5.798;2023-05-15T10:13:13;4.53;;;4.23;;
14965;SDS011;7577;45.226;5.798;2023-05-15T10:15:44;5.40;;;4.80;;
14965;SDS011;7577;45.226;5.798;2023-05-15T10:18:16;5.33;;;4.47;;
14965;SDS011;7577;45.226;5.798;2023-05-15T10:20:50;4.60;;;4.20;;
14965;SDS011;7577;45.226;5.798;2023-05-15T10:23:20;4.97;;;4.57;;
14965;SDS011;7577;45.226;5.798;2023-05-15T10:25:59;5.10;;;4.60;;
14965;SDS011;7577;45.226;5.798;2023-05-15T10:28:31;4.90;;;4.50;;
14965;SDS011;7577;45.226;5.798;2023-05-15T10:31:03;4.80;;;4.40;;
14965;SDS011;7577;45.226;5.798;2023-05-15T10:33:34;4.70;;;4.20;;
14965;SDS011;7577;45.226;5.798;2023-05-15T10:36:07;4.63;;;4.23;;
14965;SDS011;7577;45.226;5.798;2023-05-15T10:38:38;5.23;;;4.83;;
14965;SDS011;7577;45.226;5.798;2023-05-15T10:41:09;4.87;;;4.37;;
14965;SDS011;7577;45.226;5.798;2023-05-15T10:43:41;4.83;;;4.40;;
14965;SDS011;7577;45.226;5.798;2023-05-15T10:46:11;5.07;;;4.67;;
14965;SDS011;7577;45.226;5.798;2023-05-15T10:48:43;4.73;;;4.13;;
14965;SDS011;7577;45.226;5.798;2023-05-15T10:51:25;4.67;;;4.17;;
14965;SDS011;7577;45.226;5.798;2023-05-15T10:53:58;5.67;;;4.70;;
14965;SDS011;7577;45.226;5.798;2023-05-15T10:56:30;4.50;;;4.13;;
14965;SDS011;7577;45.226;5.798;2023-05-15T10:59:04;4.83;;;4.43;;
14965;SDS011;7577;45.226;5.798;2023-05-15T11:01:35;4.77;;;4.37;;
14965;SDS011;7577;45.226;5.798;2023-05-15T11:04:07;4.67;;;4.27;;
14965;SDS011;7577;45.226;5.798;2023-05-15T11:06:39;5.03;;;4.20;;
14965;SDS011;7577;45.226;5.798;2023-05-15T11:12:03;4.60;;;4.13;;
14965;SDS011;7577;45.226;5.798;2023-05-15T11:14:35;4.37;;;3.97;;
14965;SDS011;7577;45.226;5.798;2023-05-15T11:17:07;4.80;;;4.30;;
14965;SDS011;7577;45.226;5.798;2023-05-15T11:19:53;4.17;;;3.87;;
14965;SDS011;7577;45.226;5.798;2023-05-15T11:22:28;4.33;;;3.93;;
14965;SDS011;7577;45.226;5.798;2023-05-15T11:24:59;4.33;;;4.00;;
14965;SDS011;7577;45.226;5.798;2023-05-15T11:27:36;4.83;;;4.43;;
14965;SDS011;7577;45.226;5.798;2023-05-15T11:30:14;4.70;;;4.30;;
14965;SDS011;7577;45.226;5.798;2023-05-15T11:32:50;4.33;;;3.93;;
14965;SDS011;7577;45.226;5.798;2023-05-15T11:35:25;4.30;;;3.90;;
14965;SDS011;7577;45.226;5.798;2023-05-15T11:37:56;5.07;;;4.50;;
14965;SDS011;7577;45.226;5.798;2023-05-15T11:40:29;4.20;;;3.83;;
14965;SDS011;7577;45.226;5.798;2023-05-15T11:43:01;4.17;;;3.83;;
14965;SDS011;7577;45.226;5.798;2023-05-15T11:45:34;4.40;;;4.10;;
14965;SDS011;7577;45.226;5.798;2023-05-15T11:48:07;4.17;;;3.77;;
14965;SDS011;7577;45.226;5.798;2023-05-15T11:50:50;4.37;;;3.97;;
14965;SDS011;7577;45.226;5.798;2023-05-15T11:53:21;4.17;;;3.87;;
14965;SDS011;7577;45.226;5.798;2023-05-15T11:55:59;4.50;;;4.10;;
14965;SDS011;7577;45.226;5.798;2023-05-15T11:58:29;4.67;;;3.93;;
14965;SDS011;7577;45.226;5.798;2023-05-15T12:01:08;4.63;;;4.23;;
14965;SDS011;7577;45.226;5.798;2023-05-15T12:03:39;4.10;;;3.80;;
14965;SDS011;7577;45.226;5.798;2023-05-15T12:06:10;4.57;;;3.73;;
14965;SDS011;7577;45.226;5.798;2023-05-15T12:08:50;4.50;;;4.10;;
14965;SDS011;7577;45.226;5.798;2023-05-15T12:11:21;4.13;;;3.83;;
14965;SDS011;7577;45.226;5.798;2023-05-15T12:13:53;4.23;;;3.93;;
14965;SDS011;7577;45.226;5.798;2023-05-15T12:16:24;4.03;;;3.73;;
14965;SDS011;7577;45.226;5.798;2023-05-15T12:18:56;4.70;;;4.30;;
14965;SDS011;7577;45.226;5.798;2023-05-15T12:21:27;4.00;;;3.70;;
14965;SDS011;7577;45.226;5.798;2023-05-15T12:23:58;4.40;;;4.10;;
14965;SDS011;7577;45.226;5.798;2023-05-15T12:26:29;4.30;;;3.90;;
14965;SDS011;7577;45.226;5.798;2023-05-15T12:28:59;4.20;;;3.90;;
14965;SDS011;7577;45.226;5.798;2023-05-15T12:31:37;3.80;;;3.50;;
14965;SDS011;7577;45.226;5.798;2023-05-15T12:34:07;4.43;;;4.03;;
14965;SDS011;7577;45.226;5.798;2023-05-15T12:36:40;3.97;;;3.67;;
14965;SDS011;7577;45.226;5.798;2023-05-15T12:39:10;4.47;;;4.07;;
14965;SDS011;7577;45.226;5.798;2023-05-15T12:41:40;5.13;;;4.40;;
14965;SDS011;7577;45.226;5.798;2023-05-15T12:44:15;4.30;;;3.90;;
14965;SDS011;7577;45.226;5.798;2023-05-15T12:46:53;4.50;;;4.20;;
14965;SDS011;7577;45.226;5.798;2023-05-15T12:49:23;4.50;;;4.10;;
14965;SDS011;7577;45.226;5.798;2023-05-15T12:51:53;15.00;;;6.07;;
14965;SDS011;7577;45.226;5.798;2023-05-15T12:54:31;15.80;;;6.47;;
14965;SDS011;7577;45.226;5.798;2023-05-15T12:57:07;16.23;;;6.23;;
14965;SDS011;7577;45.226;5.798;2023-05-15T12:59:38;15.27;;;6.50;;
14965;SDS011;7577;45.226;5.798;2023-05-15T13:02:09;16.00;;;6.40;;
14965;SDS011;7577;45.226;5.798;2023-05-15T13:04:41;11.47;;;6.30;;
14965;SDS011;7577;45.226;5.798;2023-05-15T13:07:14;13.93;;;5.83;;
14965;SDS011;7577;45.226;5.798;2023-05-15T13:09:44;11.57;;;5.87;;
14965;SDS011;7577;45.226;5.798;2023-05-15T13:12:18;9.20;;;5.23;;
14965;SDS011;7577;45.226;5.798;2023-05-15T13:14:50;10.37;;;5.20;;
14965;SDS011;7577;45.226;5.798;2023-05-15T13:17:20;7.77;;;5.70;;
14965;SDS011;7577;45.226;5.798;2023-05-15T13:19:50;9.70;;;5.40;;
14965;SDS011;7577;45.226;5.798;2023-05-15T13:22:20;8.03;;;5.30;;
14965;SDS011;7577;45.226;5.798;2023-05-15T13:24:51;8.80;;;5.33;;
14965;SDS011;7577;45.226;5.798;2023-05-15T13:27:29;8.47;;;5.20;;
14965;SDS011;7577;45.226;5.798;2023-05-15T13:29:59;8.53;;;5.60;;
14965;SDS011;7577;45.226;5.798;2023-05-15T13:32:29;9.83;;;5.23;;
14965;SDS011;7577;45.226;5.798;2023-05-15T13:35:00;9.30;;;5.63;;
14965;SDS011;7577;45.226;5.798;2023-05-15T13:37:31;9.37;;;5.10;;
14965;SDS011;7577;45.226;5.798;2023-05-15T13:40:01;8.43;;;5.30;;
14965;SDS011;7577;45.226;5.798;2023-05-15T13:42:33;9.03;;;5.70;;
14965;SDS011;7577;45.226;5.798;2023-05-15T13:45:04;8.87;;;5.53;;
14965;SDS011;7577;45.226;5.798;2023-05-15T13:47:37;8.83;;;5.40;;
14965;SDS011;7577;45.226;5.798;2023-05-15T13:50:15;8.30;;;5.70;;
14965;SDS011;7577;45.226;5.798;2023-05-15T13:52:45;9.73;;;5.20;;
14965;SDS011;7577;45.226;5.798;2023-05-15T13:55:15;10.20;;;6.30;;
14965;SDS011;7577;45.226;5.798;2023-05-15T13:57:46;7.00;;;5.10;;
14965;SDS011;7577;45.226;5.798;2023-05-15T14:00:17;7.40;;;5.30;;
14965;SDS011;7577;45.226;5.798;2023-05-15T14:02:48;7.37;;;5.27;;
14965;SDS011;7577;45.226;5.798;2023-05-15T14:05:18;8.63;;;5.83;;
14965;SDS011;7577;45.226;5.798;2023-05-15T14:07:48;7.07;;;5.27;;
14965;SDS011;7577;45.226;5.798;2023-05-15T14:10:18;9.23;;;5.30;;
14965;SDS011;7577;45.226;5.798;2023-05-15T14:12:50;8.00;;;5.80;;
14965;SDS011;7577;45.226;5.798;2023-05-15T14:15:20;7.57;;;5.60;;
14965;SDS011;7577;45.226;5.798;2023-05-15T14:17:50;7.77;;;5.87;;
14965;SDS011;7577;45.226;5.798;2023-05-15T14:20:20;7.53;;;5.97;;
14965;SDS011;7577;45.226;5.798;2023-05-15T14:22:51;6.63;;;5.40;;
14965;SDS011;7577;45.226;5.798;2023-05-15T14:25:22;6.60;;;5.47;;
14965;SDS011;7577;45.226;5.798;2023-05-15T14:28:00;8.13;;;5.93;;
14965;SDS011;7577;45.226;5.798;2023-05-15T14:30:30;5.97;;;5.37;;
14965;SDS011;7577;45.226;5.798;2023-05-15T14:33:00;7.13;;;5.87;;
14965;SDS011;7577;45.226;5.798;2023-05-15T14:35:30;6.30;;;5.67;;
14965;SDS011;7577;45.226;5.798;2023-05-15T14:38:00;6.20;;;5.50;;
14965;SDS011;7577;45.226;5.798;2023-05-15T14:40:32;7.17;;;5.53;;
14965;SDS011;7577;45.226;5.798;2023-05-15T14:43:02;6.37;;;5.73;;
14965;SDS011;7577;45.226;5.798;2023-05-15T14:45:32;6.30;;;5.33;;
14965;SDS011;7577;45.226;5.798;2023-05-15T14:48:04;6.00;;;5.40;;
14965;SDS011;7577;45.226;5.798;2023-05-15T14:50:34;6.53;;;5.43;;
14965;SDS011;7577;45.226;5.798;2023-05-15T14:53:04;6.20;;;5.60;;
14965;SDS011;7577;45.226;5.798;2023-05-15T14:55:35;7.63;;;5.57;;
14965;SDS011;7577;45.226;5.798;2023-05-15T14:58:05;8.10;;;5.40;;
14965;SDS011;7577;45.226;5.798;2023-05-15T15:00:37;5.67;;;5.17;;
14965;SDS011;7577;45.226;5.798;2023-05-15T15:03:07;7.93;;;5.40;;
14965;SDS011;7577;45.226;5.798;2023-05-15T15:05:38;5.80;;;5.20;;
14965;SDS011;7577;45.226;5.798;2023-05-15T15:08:08;5.97;;;5.30;;
14965;SDS011;7577;45.226;5.798;2023-05-15T15:10:39;7.50;;;5.07;;
14965;SDS011;7577;45.226;5.798;2023-05-15T15:13:10;6.30;;;5.47;;
14965;SDS011;7577;45.226;5.798;2023-05-15T15:15:40;7.07;;;5.27;;
14965;SDS011;7577;45.226;5.798;2023-05-15T15:18:11;5.93;;;5.37;;
14965;SDS011;7577;45.226;5.798;2023-05-15T15:20:49;5.97;;;5.43;;
14965;SDS011;7577;45.226;5.798;2023-05-15T15:23:19;5.93;;;5.37;;
14965;SDS011;7577;45.226;5.798;2023-05-15T15:25:50;6.43;;;5.60;;
14965;SDS011;7577;45.226;5.798;2023-05-15T15:28:27;7.03;;;5.60;;
14965;SDS011;7577;45.226;5.798;2023-05-15T15:30:59;6.60;;;5.40;;